Wetterdaten: Woche 25.06.18 - 01.07.18 (KW26)
Datum Zeit Temp. Aussen Temp. o. S. +5cm Feuchte Auss Luftdruck Regen Sonnenschein Regendauer Solar Windben Empfang
25.06.2018 00:00 14,2 C 13,5 C 13,3 C 91 % 1021,1 hPa 0,0 l/m 0,00 h 0,00 h 0 W/m 6,3 km/h (2 Bft) 98,58 %
25.06.2018 01:00 14,1 C 13,3 C 13,3 C 92 % 1020,9 hPa 0,0 l/m 0,00 h 0,00 h 0 W/m 5,2 km/h (1 Bft) 97,74 %
25.06.2018 02:00 14,0 C 13,3 C 13,3 C 92 % 1020,8 hPa 0,0 l/m 0,00 h 0,00 h 0 W/m 4,1 km/h (1 Bft) 97,37 %
25.06.2018 03:00 14,0 C 13,3 C 13,3 C 93 % 1020,8 hPa 0,0 l/m 0,00 h 0,00 h 0 W/m 8,1 km/h (2 Bft) 96,79 %
25.06.2018 04:00 14,0 C 13,3 C 13,2 C 93 % 1020,8 hPa 0,0 l/m 0,00 h 0,00 h 0 W/m 6,0 km/h (2 Bft) 97,94 %
25.06.2018 05:00 13,8 C 13,3 C 12,8 C 94 % 1021,0 hPa 0,0 l/m 0,00 h 0,00 h 5 W/m 7,9 km/h (2 Bft) 99,29 %
25.06.2018 06:00 13,7 C 12,9 C 12,7 C 95 % 1021,4 hPa 0,0 l/m 0,00 h 0,00 h 23 W/m 6,5 km/h (2 Bft) 95,91 %
25.06.2018 07:00 13,7 C 13,0 C 12,8 C 95 % 1021,6 hPa 0,0 l/m 0,00 h 0,00 h 54 W/m 6,9 km/h (2 Bft) 96,73 %
25.06.2018 08:00 14,0 C 14,5 C 13,5 C 96 % 1022,0 hPa 0,0 l/m 0,00 h 0,00 h 113 W/m 8,0 km/h (2 Bft) 99,48 %
25.06.2018 09:00 14,6 C 15,4 C 14,1 C 94 % 1022,4 hPa 0,0 l/m 0,00 h 0,00 h 146 W/m 8,9 km/h (2 Bft) 97,27 %
25.06.2018 10:00 15,7 C 16,9 C 15,0 C 89 % 1022,6 hPa 0,0 l/m 0,00 h 0,00 h 218 W/m 8,6 km/h (2 Bft) 96,43 %
25.06.2018 11:00 17,0 C 19,4 C 16,1 C 84 % 1022,8 hPa 0,0 l/m 0,30 h 0,00 h 350 W/m 8,9 km/h (2 Bft) 99,63 %
25.06.2018 12:00 18,1 C 18,9 C 16,7 C 80 % 1022,9 hPa 0,0 l/m 0,00 h 0,00 h 246 W/m 9,7 km/h (2 Bft) 96,32 %
25.06.2018 13:00 18,3 C 19,3 C 17,1 C 80 % 1022,9 hPa 0,0 l/m 0,00 h 0,00 h 306 W/m 10,8 km/h (2 Bft) 96,79 %
25.06.2018 14:00 18,9 C 20,6 C 17,9 C 78 % 1022,8 hPa 0,0 l/m 0,37 h 0,00 h 552 W/m 7,2 km/h (2 Bft) 99,29 %
25.06.2018 15:00 20,5 C 22,1 C 19,0 C 72 % 1022,5 hPa 0,0 l/m 0,33 h 0,00 h 476 W/m 8,1 km/h (2 Bft) 97,44 %
25.06.2018 16:00 21,8 C 24,4 C 20,3 C 67 % 1022,2 hPa 0,0 l/m 0,53 h 0,00 h 546 W/m 8,9 km/h (2 Bft) 96,30 %
25.06.2018 17:00 22,8 C 24,0 C 20,8 C 61 % 1021,9 hPa 0,0 l/m 0,57 h 0,00 h 455 W/m 9,8 km/h (2 Bft) 97,86 %
25.06.2018 18:00 22,9 C 23,6 C 21,3 C 58 % 1021,7 hPa 0,0 l/m 1,00 h 0,00 h 514 W/m 12,3 km/h (3 Bft) 98,70 %
25.06.2018 19:00 22,4 C 22,2 C 20,4 C 58 % 1021,6 hPa 0,0 l/m 1,00 h 0,00 h 343 W/m 11,6 km/h (2 Bft) 95,80 %
25.06.2018 20:00 21,2 C 20,3 C 19,6 C 62 % 1021,6 hPa 0,0 l/m 0,00 h 0,00 h 37 W/m 9,1 km/h (2 Bft) 98,08 %
25.06.2018 21:00 20,0 C 18,7 C 18,4 C 66 % 1021,8 hPa 0,0 l/m 0,00 h 0,00 h 14 W/m 6,3 km/h (2 Bft) 99,08 %
25.06.2018 22:00 18,6 C 16,7 C 16,8 C 70 % 1022,3 hPa 0,0 l/m 0,00 h 0,00 h 0 W/m 3,1 km/h (1 Bft) 94,09 %
25.06.2018 23:00 17,0 C 15,6 C 15,8 C 77 % 1022,7 hPa 0,0 l/m 0,00 h 0,00 h 0 W/m 4,8 km/h (1 Bft) 98,72 %
26.06.2018 00:00 16,0 C 14,5 C 14,8 C 83 % 1022,7 hPa 0,0 l/m 0,00 h 0,00 h 0 W/m 4,0 km/h (1 Bft) 99,09 %
26.06.2018 01:00 14,9 C 13,7 C 14,0 C 86 % 1022,8 hPa 0,0 l/m 0,00 h 0,00 h 0 W/m 3,7 km/h (1 Bft) 97,60 %
26.06.2018 02:00 14,1 C 12,9 C 13,4 C 88 % 1022,7 hPa 0,0 l/m 0,00 h 0,00 h 0 W/m 2,8 km/h (1 Bft) 96,61 %
26.06.2018 03:00 13,2 C 11,9 C 12,5 C 89 % 1022,7 hPa 0,0 l/m 0,00 h 0,00 h 0 W/m 2,9 km/h (1 Bft) 96,30 %
26.06.2018 04:00 12,5 C 11,4 C 11,9 C 91 % 1022,6 hPa 0,0 l/m 0,00 h 0,00 h 0 W/m 1,5 km/h (1 Bft) 99,48 %
26.06.2018 05:00 12,1 C 11,7 C 11,7 C 92 % 1022,7 hPa 0,0 l/m 0,00 h 0,00 h 8 W/m 3,4 km/h (1 Bft) 96,99 %
26.06.2018 06:00 12,3 C 12,2 C 11,7 C 92 % 1022,9 hPa 0,0 l/m 0,00 h 0,00 h 31 W/m 5,2 km/h (1 Bft) 98,31 %
26.06.2018 07:00 12,4 C 12,7 C 12,1 C 91 % 1023,1 hPa 0,0 l/m 0,00 h 0,00 h 91 W/m 7,9 km/h (2 Bft) 97,28 %
26.06.2018 08:00 12,8 C 13,6 C 12,3 C 88 % 1023,4 hPa 0,0 l/m 0,00 h 0,00 h 179 W/m 8,2 km/h (2 Bft) 96,69 %
26.06.2018 09:00 13,7 C 15,2 C 13,1 C 84 % 1023,6 hPa 0,0 l/m 0,13 h 0,00 h 282 W/m 8,4 km/h (2 Bft) 98,49 %
26.06.2018 10:00 15,0 C 17,3 C 14,2 C 80 % 1023,8 hPa 0,0 l/m 0,73 h 0,00 h 485 W/m 9,5 km/h (2 Bft) 96,09 %
26.06.2018 11:00 17,2 C 23,0 C 15,7 C 73 % 1023,8 hPa 0,0 l/m 1,00 h 0,00 h 768 W/m 10,8 km/h (2 Bft) 98,89 %
26.06.2018 12:00 19,3 C 24,3 C 14,2 C 69 % 1023,7 hPa 0,0 l/m 1,00 h 0,00 h 828 W/m 11,9 km/h (2 Bft) 96,77 %
26.06.2018 13:00 19,4 C 20,3 C 13,5 C 71 % 1023,5 hPa 0,0 l/m 1,00 h 0,00 h 795 W/m 11,0 km/h (2 Bft) 95,72 %
26.06.2018 14:00 18,8 C 19,2 C 15,1 C 73 % 1023,5 hPa 0,0 l/m 1,00 h 0,00 h 900 W/m 12,7 km/h (3 Bft) 99,69 %
26.06.2018 15:00 19,7 C 21,1 C 17,7 C 71 % 1023,3 hPa 0,0 l/m 1,00 h 0,00 h 863 W/m 13,2 km/h (3 Bft) 96,61 %
26.06.2018 16:00 20,8 C 24,4 C 18,7 C 69 % 1023,0 hPa 0,0 l/m 1,00 h 0,00 h 750 W/m 9,9 km/h (2 Bft) 96,94 %
26.06.2018 17:00 22,2 C 23,9 C 19,9 C 66 % 1022,6 hPa 0,0 l/m 1,00 h 0,00 h 638 W/m 9,5 km/h (2 Bft) 98,86 %
26.06.2018 18:00 22,3 C 22,7 C 20,2 C 66 % 1022,4 hPa 0,0 l/m 1,00 h 0,00 h 487 W/m 8,0 km/h (2 Bft) 97,06 %
26.06.2018 19:00 21,5 C 20,9 C 18,9 C 68 % 1022,4 hPa 0,0 l/m 1,00 h 0,00 h 308 W/m 6,7 km/h (2 Bft) 96,89 %
26.06.2018 20:00 19,6 C 18,3 C 17,6 C 73 % 1022,4 hPa 0,0 l/m 0,00 h 0,00 h 56 W/m 4,6 km/h (1 Bft) 97,76 %
26.06.2018 21:00 18,0 C 16,3 C 16,3 C 78 % 1022,5 hPa 0,0 l/m 0,00 h 0,00 h 19 W/m 1,4 km/h (1 Bft) 98,22 %
26.06.2018 22:00 16,4 C 14,3 C 14,8 C 82 % 1022,8 hPa 0,0 l/m 0,00 h 0,00 h 4 W/m 0,0 km/h (0 Bft) 96,87 %
26.06.2018 23:00 15,0 C 13,3 C 13,6 C 85 % 1023,0 hPa 0,0 l/m 0,00 h 0,00 h 0 W/m 0,0 km/h (0 Bft) 95,59 %
27.06.2018 00:00 14,0 C 12,8 C 13,0 C 87 % 1022,8 hPa 0,0 l/m 0,00 h 0,00 h 0 W/m 0,0 km/h (0 Bft) 98,65 %
27.06.2018 01:00 13,4 C 12,4 C 12,8 C 89 % 1022,5 hPa 0,0 l/m 0,00 h 0,00 h 0 W/m 0,7 km/h (0 Bft) 99,19 %
27.06.2018 02:00 13,0 C 12,0 C 12,1 C 91 % 1022,4 hPa 0,0 l/m 0,00 h 0,00 h 0 W/m 0,0 km/h (0 Bft) 96,72 %
27.06.2018 03:00 12,4 C 11,5 C 11,8 C 91 % 1022,3 hPa 0,0 l/m 0,00 h 0,00 h 0 W/m 0,5 km/h (0 Bft) 96,38 %
27.06.2018 04:00 12,3 C 11,5 C 12,0 C 93 % 1022,4 hPa 0,0 l/m 0,00 h 0,00 h 0 W/m 0,5 km/h (0 Bft) 97,58 %
27.06.2018 05:00 12,0 C 11,3 C 11,7 C 94 % 1022,5 hPa 0,0 l/m 0,00 h 0,00 h 10 W/m 0,4 km/h (0 Bft) 98,75 %
27.06.2018 06:00 12,1 C 12,0 C 12,1 C 95 % 1022,7 hPa 0,0 l/m 0,00 h 0,00 h 28 W/m 1,0 km/h (0 Bft) 96,77 %
27.06.2018 07:00 12,8 C 13,5 C 13,0 C 96 % 1023,0 hPa 0,0 l/m 0,00 h 0,00 h 49 W/m 2,1 km/h (1 Bft) 98,36 %
27.06.2018 08:00 14,6 C 18,1 C 14,5 C 96 % 1023,0 hPa 0,0 l/m 0,83 h 0,00 h 297 W/m 3,0 km/h (1 Bft) 97,06 %
27.06.2018 09:00 16,7 C 18,9 C 15,8 C 89 % 1023,1 hPa 0,0 l/m 1,00 h 0,00 h 505 W/m 2,4 km/h (1 Bft) 96,98 %
27.06.2018 10:00 18,6 C 20,3 C 17,8 C 81 % 1023,1 hPa 0,0 l/m 1,00 h 0,00 h 650 W/m 7,1 km/h (2 Bft) 98,22 %
27.06.2018 11:00 21,9 C 30,4 C 19,7 C 73 % 1022,7 hPa 0,0 l/m 1,00 h 0,00 h 771 W/m 6,7 km/h (2 Bft) 96,94 %
27.06.2018 12:00 25,6 C 34,4 C 21,9 C 61 % 1022,2 hPa 0,0 l/m 1,00 h 0,00 h 858 W/m 7,7 km/h (2 Bft) 98,21 %
27.06.2018 13:00 26,5 C 30,8 C 23,7 C 58 % 1021,6 hPa 0,0 l/m 0,97 h 0,00 h 850 W/m 11,7 km/h (2 Bft) 97,51 %
27.06.2018 14:00 26,4 C 27,2 C 24,4 C 55 % 1021,2 hPa 0,0 l/m 0,93 h 0,00 h 827 W/m 10,6 km/h (2 Bft) 97,15 %
27.06.2018 15:00 26,7 C 27,1 C 24,1 C 55 % 1020,8 hPa 0,0 l/m 0,47 h 0,00 h 491 W/m 9,8 km/h (2 Bft) 98,79 %
27.06.2018 16:00 26,2 C 28,0 C 24,1 C 54 % 1020,5 hPa 0,0 l/m 0,77 h 0,00 h 499 W/m 10,1 km/h (2 Bft) 96,01 %
27.06.2018 17:00 26,8 C 28,4 C 24,8 C 50 % 1020,0 hPa 0,0 l/m 0,97 h 0,00 h 570 W/m 11,4 km/h (2 Bft) 98,01 %
27.06.2018 18:00 26,4 C 26,1 C 23,7 C 50 % 1019,9 hPa 0,0 l/m 1,00 h 0,00 h 344 W/m 9,6 km/h (2 Bft) 98,02 %
27.06.2018 19:00 24,8 C 24,1 C 22,1 C 52 % 1020,1 hPa 0,0 l/m 0,77 h 0,00 h 240 W/m 7,6 km/h (2 Bft) 96,21 %
27.06.2018 20:00 23,3 C 22,3 C 21,3 C 55 % 1020,3 hPa 0,0 l/m 0,00 h 0,00 h 52 W/m 6,1 km/h (2 Bft) 98,81 %
27.06.2018 21:00 21,8 C 18,0 C 16,8 C 60 % 1020,4 hPa 0,0 l/m 0,13 h 0,00 h 19 W/m 3,7 km/h (1 Bft) 96,65 %
27.06.2018 22:00 19,7 C 14,3 C 13,6 C 65 % 1020,7 hPa 0,0 l/m 0,00 h 0,00 h 3 W/m 2,1 km/h (1 Bft) 97,15 %
27.06.2018 23:00 17,9 C 14,2 C 13,8 C 71 % 1020,9 hPa 0,0 l/m 0,00 h 0,00 h 0 W/m 1,1 km/h (0 Bft) 99,64 %
28.06.2018 00:00 16,8 C 14,1 C 14,5 C 74 % 1021,2 hPa 0,0 l/m 0,00 h 0,00 h 0 W/m 1,0 km/h (0 Bft) 96,14 %
28.06.2018 01:00 16,1 C 13,9 C 14,9 C 77 % 1021,3 hPa 0,0 l/m 0,00 h 0,00 h 0 W/m 0,8 km/h (0 Bft) 96,59 %
28.06.2018 02:00 15,4 C 14,0 C 14,2 C 79 % 1021,3 hPa 0,0 l/m 0,00 h 0,00 h 0 W/m 0,0 km/h (0 Bft) 97,94 %
28.06.2018 03:00 14,7 C 13,9 C 13,7 C 82 % 1021,2 hPa 0,0 l/m 0,00 h 0,00 h 0 W/m 0,0 km/h (0 Bft) 99,12 %
28.06.2018 04:00 14,3 C 13,5 C 13,1 C 84 % 1021,3 hPa 0,0 l/m 0,00 h 0,00 h 0 W/m 0,0 km/h (0 Bft) 96,65 %
28.06.2018 05:00 13,9 C 13,1 C 12,9 C 85 % 1021,4 hPa 0,0 l/m 0,00 h 0,00 h 10 W/m 0,0 km/h (0 Bft) 97,12 %
28.06.2018 06:00 13,7 C 13,9 C 13,5 C 88 % 1021,4 hPa 0,0 l/m 0,00 h 0,00 h 26 W/m 0,0 km/h (0 Bft) 97,80 %
28.06.2018 07:00 14,4 C 15,6 C 14,7 C 90 % 1021,2 hPa 0,0 l/m 0,00 h 0,00 h 43 W/m 0,5 km/h (0 Bft) 96,86 %
28.06.2018 08:00 17,5 C 21,5 C 17,6 C 82 % 1021,2 hPa 0,0 l/m 0,83 h 0,00 h 312 W/m 6,6 km/h (2 Bft) 99,02 %
28.06.2018 09:00 20,9 C 23,6 C 19,8 C 69 % 1021,3 hPa 0,0 l/m 1,00 h 0,00 h 510 W/m 6,8 km/h (2 Bft) 95,90 %
28.06.2018 10:00 23,0 C 24,4 C 21,4 C 60 % 1021,4 hPa 0,0 l/m 1,00 h 0,00 h 654 W/m 9,6 km/h (2 Bft) 97,54 %
28.06.2018 11:00 25,4 C 32,3 C 22,5 C 55 % 1021,1 hPa 0,0 l/m 1,00 h 0,00 h 771 W/m 11,5 km/h (2 Bft) 99,01 %
28.06.2018 12:00 27,5 C 35,5 C 23,8 C 50 % 1020,6 hPa 0,0 l/m 1,00 h 0,00 h 858 W/m 12,0 km/h (2 Bft) 95,66 %
28.06.2018 13:00 27,9 C 32,7 C 24,9 C 48 % 1020,1 hPa 0,0 l/m 0,93 h 0,00 h 863 W/m 11,7 km/h (2 Bft) 97,52 %
28.06.2018 14:00 27,7 C 28,0 C 25,5 C 48 % 1019,4 hPa 0,0 l/m 1,00 h 0,00 h 934 W/m 10,4 km/h (2 Bft) 98,17 %
28.06.2018 15:00 28,7 C 29,8 C 25,7 C 46 % 1018,7 hPa 0,0 l/m 0,83 h 0,00 h 778 W/m 9,3 km/h (2 Bft) 97,78 %
28.06.2018 16:00 28,8 C 31,4 C 25,7 C 45 % 1018,0 hPa 0,0 l/m 0,80 h 0,00 h 658 W/m 9,6 km/h (2 Bft) 97,51 %
28.06.2018 17:00 28,6 C 29,3 C 26,0 C 45 % 1017,5 hPa 0,0 l/m 0,77 h 0,00 h 492 W/m 10,1 km/h (2 Bft) 96,58 %
28.06.2018 18:00 27,9 C 27,6 C 25,5 C 46 % 1017,3 hPa 0,0 l/m 0,67 h 0,00 h 355 W/m 9,3 km/h (2 Bft) 99,34 %
28.06.2018 19:00 27,3 C 27,1 C 24,8 C 47 % 1017,1 hPa 0,0 l/m 1,00 h 0,00 h 338 W/m 8,6 km/h (2 Bft) 97,29 %
28.06.2018 20:00 26,1 C 24,9 C 23,8 C 50 % 1017,0 hPa 0,0 l/m 0,03 h 0,00 h 52 W/m 7,2 km/h (2 Bft) 95,36 %
28.06.2018 21:00 24,7 C 23,2 C 22,6 C 53 % 1017,1 hPa 0,0 l/m 0,00 h 0,00 h 16 W/m 6,1 km/h (2 Bft) 99,57 %
28.06.2018 22:00 23,3 C 21,4 C 21,0 C 57 % 1017,6 hPa 0,0 l/m 0,00 h 0,00 h 4 W/m 2,9 km/h (1 Bft) 98,13 %
28.06.2018 23:00 21,9 C 20,8 C 20,4 C 61 % 1017,8 hPa 0,0 l/m 0,00 h 0,00 h 0 W/m 6,0 km/h (2 Bft) 94,88 %
29.06.2018 00:00 21,4 C 20,6 C 20,1 C 61 % 1017,9 hPa 0,0 l/m 0,00 h 0,00 h 0 W/m 9,3 km/h (2 Bft) 99,32 %
29.06.2018 01:00 20,7 C 19,5 C 19,2 C 62 % 1018,0 hPa 0,0 l/m 0,00 h 0,00 h 0 W/m 7,6 km/h (2 Bft) 97,57 %
29.06.2018 02:00 19,6 C 18,0 C 18,0 C 67 % 1018,1 hPa 0,0 l/m 0,00 h 0,00 h 0 W/m 1,7 km/h (1 Bft) 95,86 %
29.06.2018 03:00 18,4 C 16,6 C 16,9 C 71 % 1017,8 hPa 0,0 l/m 0,00 h 0,00 h 0 W/m 1,1 km/h (1 Bft) 98,45 %
29.06.2018 04:00 17,3 C 16,1 C 16,5 C 75 % 1017,6 hPa 0,0 l/m 0,00 h 0,00 h 0 W/m 3,3 km/h (1 Bft) 97,19 %
29.06.2018 05:00 16,6 C 15,6 C 15,8 C 77 % 1017,6 hPa 0,0 l/m 0,00 h 0,00 h 10 W/m 2,6 km/h (1 Bft) 97,86 %
29.06.2018 06:00 16,1 C 15,6 C 15,6 C 80 % 1017,5 hPa 0,0 l/m 0,00 h 0,00 h 26 W/m 3,8 km/h (1 Bft) 98,70 %
29.06.2018 07:00 16,4 C 16,7 C 16,2 C 81 % 1017,6 hPa 0,0 l/m 0,00 h 0,00 h 42 W/m 6,0 km/h (2 Bft) 95,62 %
29.06.2018 08:00 18,4 C 20,4 C 17,8 C 77 % 1017,6 hPa 0,0 l/m 0,80 h 0,00 h 304 W/m 7,8 km/h (2 Bft) 98,86 %
29.06.2018 09:00 20,6 C 22,7 C 19,8 C 70 % 1017,5 hPa 0,0 l/m 1,00 h 0,00 h 503 W/m 7,4 km/h (2 Bft) 99,43 %
29.06.2018 10:00 22,6 C 24,0 C 21,7 C 61 % 1017,2 hPa 0,0 l/m 1,00 h 0,00 h 646 W/m 9,2 km/h (2 Bft) 94,09 %
29.06.2018 11:00 25,5 C 31,8 C 23,5 C 54 % 1016,8 hPa 0,0 l/m 1,00 h 0,00 h 767 W/m 10,2 km/h (2 Bft) 99,22 %
29.06.2018 12:00 28,2 C 35,6 C 25,1 C 48 % 1016,4 hPa 0,0 l/m 1,00 h 0,00 h 857 W/m 11,0 km/h (2 Bft) 98,90 %
29.06.2018 13:00 28,8 C 33,5 C 26,4 C 45 % 1015,9 hPa 0,0 l/m 1,00 h 0,00 h 908 W/m 10,7 km/h (2 Bft) 95,52 %
29.06.2018 14:00 28,8 C 28,9 C 26,7 C 47 % 1015,3 hPa 0,0 l/m 1,00 h 0,00 h 912 W/m 10,2 km/h (2 Bft) 98,66 %
29.06.2018 15:00 29,6 C 30,9 C 27,4 C 45 % 1014,6 hPa 0,0 l/m 1,00 h 0,00 h 866 W/m 11,0 km/h (2 Bft) 98,15 %
29.06.2018 16:00 30,3 C 33,2 C 27,8 C 42 % 1014,2 hPa 0,0 l/m 1,00 h 0,00 h 786 W/m 12,8 km/h (3 Bft) 97,86 %
29.06.2018 17:00 30,4 C 31,2 C 27,9 C 41 % 1013,7 hPa 0,0 l/m 1,00 h 0,00 h 667 W/m 12,0 km/h (2 Bft) 98,15 %
29.06.2018 18:00 30,1 C 29,6 C 27,8 C 40 % 1013,4 hPa 0,0 l/m 1,00 h 0,00 h 515 W/m 12,2 km/h (2 Bft) 97,36 %
29.06.2018 19:00 29,0 C 28,2 C 26,7 C 40 % 1013,2 hPa 0,0 l/m 1,00 h 0,00 h 352 W/m 9,9 km/h (2 Bft) 94,88 %
29.06.2018 20:00 27,5 C 26,1 C 25,3 C 43 % 1013,1 hPa 0,0 l/m 0,00 h 0,00 h 42 W/m 8,3 km/h (2 Bft) 98,36 %
29.06.2018 21:00 25,9 C 24,2 C 23,9 C 50 % 1013,3 hPa 0,0 l/m 0,00 h 0,00 h 17 W/m 5,9 km/h (2 Bft) 98,22 %
29.06.2018 22:00 24,4 C 22,8 C 22,6 C 59 % 1013,7 hPa 0,0 l/m 0,00 h 0,00 h 3 W/m 8,1 km/h (2 Bft) 95,66 %
29.06.2018 23:00 22,8 C 21,1 C 21,1 C 64 % 1014,1 hPa 0,0 l/m 0,00 h 0,00 h 0 W/m 5,8 km/h (2 Bft) 98,08 %
30.06.2018 00:00 21,4 C 19,9 C 20,1 C 68 % 1014,2 hPa 0,0 l/m 0,00 h 0,00 h 0 W/m 5,9 km/h (2 Bft) 98,23 %
30.06.2018 01:00 20,1 C 18,6 C 18,8 C 70 % 1014,2 hPa 0,0 l/m 0,00 h 0,00 h 0 W/m 5,0 km/h (1 Bft) 96,65 %
30.06.2018 02:00 19,0 C 17,3 C 17,7 C 74 % 1014,0 hPa 0,0 l/m 0,00 h 0,00 h 0 W/m 2,8 km/h (1 Bft) 96,94 %
30.06.2018 03:00 17,9 C 16,4 C 17,0 C 80 % 1014,0 hPa 0,0 l/m 0,00 h 0,00 h 0 W/m 2,0 km/h (1 Bft) 98,22 %
30.06.2018 04:00 17,1 C 15,8 C 16,7 C 84 % 1013,7 hPa 0,0 l/m 0,00 h 0,00 h 0 W/m 1,3 km/h (1 Bft) 97,00 %
30.06.2018 05:00 16,5 C 15,4 C 14,7 C 87 % 1013,5 hPa 0,0 l/m 0,00 h 0,00 h 11 W/m 0,9 km/h (0 Bft) 99,34 %
30.06.2018 06:00 16,1 C 15,7 C 15,6 C 89 % 1013,6 hPa 0,0 l/m 0,00 h 0,00 h 31 W/m 2,5 km/h (1 Bft) 95,37 %
30.06.2018 07:00 16,5 C 16,9 C 16,5 C 91 % 1013,7 hPa 0,0 l/m 0,00 h 0,00 h 50 W/m 3,8 km/h (1 Bft) 97,37 %
30.06.2018 08:00 18,6 C 21,2 C 18,5 C 89 % 1013,5 hPa 0,0 l/m 0,80 h 0,00 h 302 W/m 6,9 km/h (2 Bft) 99,78 %
30.06.2018 09:00 21,1 C 23,4 C 20,4 C 80 % 1013,5 hPa 0,0 l/m 1,00 h 0,00 h 490 W/m 6,1 km/h (2 Bft) 95,86 %
30.06.2018 10:00 23,1 C 25,1 C 21,8 C 72 % 1013,4 hPa 0,0 l/m 1,00 h 0,00 h 633 W/m 7,2 km/h (2 Bft) 97,09 %
30.06.2018 11:00 26,3 C 34,3 C 23,7 C 64 % 1013,2 hPa 0,0 l/m 1,00 h 0,00 h 754 W/m 8,9 km/h (2 Bft) 99,57 %
30.06.2018 12:00 28,9 C 36,7 C 25,2 C 55 % 1012,9 hPa 0,0 l/m 1,00 h 0,00 h 843 W/m 9,6 km/h (2 Bft) 96,68 %
30.06.2018 13:00 29,1 C 34,0 C 26,3 C 53 % 1012,6 hPa 0,0 l/m 0,97 h 0,00 h 852 W/m 9,9 km/h (2 Bft) 96,30 %
30.06.2018 14:00 28,5 C 28,4 C 26,3 C 52 % 1012,3 hPa 0,0 l/m 1,00 h 0,00 h 901 W/m 12,4 km/h (3 Bft) 98,29 %
30.06.2018 15:00 29,0 C 30,2 C 26,6 C 47 % 1012,1 hPa 0,0 l/m 1,00 h 0,00 h 868 W/m 10,1 km/h (2 Bft) 98,86 %
30.06.2018 16:00 29,9 C 33,9 C 27,0 C 43 % 1011,8 hPa 0,0 l/m 1,00 h 0,00 h 787 W/m 9,8 km/h (2 Bft) 97,03 %
30.06.2018 17:00 30,2 C 31,5 C 27,6 C 41 % 1011,6 hPa 0,0 l/m 1,00 h 0,00 h 666 W/m 9,6 km/h (2 Bft) 96,73 %
30.06.2018 18:00 29,5 C 29,0 C 27,4 C 39 % 1011,3 hPa 0,0 l/m 1,00 h 0,00 h 518 W/m 11,2 km/h (2 Bft) 96,32 %
30.06.2018 19:00 27,8 C 26,9 C 25,4 C 38 % 1011,2 hPa 0,0 l/m 1,00 h 0,00 h 348 W/m 10,4 km/h (2 Bft) 97,41 %
30.06.2018 20:00 25,7 C 24,0 C 22,6 C 39 % 1011,3 hPa 0,0 l/m 0,00 h 0,00 h 40 W/m 9,0 km/h (2 Bft) 98,72 %
30.06.2018 21:00 23,4 C 16,3 C 15,2 C 44 % 1011,8 hPa 0,0 l/m 0,00 h 0,00 h 15 W/m 6,6 km/h (2 Bft) 96,58 %
30.06.2018 22:00 20,9 C 14,0 C 13,0 C 50 % 1012,3 hPa 0,0 l/m 0,00 h 0,00 h 3 W/m 5,6 km/h (1 Bft) 97,31 %
30.06.2018 23:00 19,2 C 13,8 C 14,1 C 53 % 1012,7 hPa 0,0 l/m 0,00 h 0,00 h 0 W/m 5,3 km/h (1 Bft) 98,86 %
01.07.2018 00:00 18,3 C 14,4 C 15,8 C 55 % 1013,1 hPa 0,0 l/m 0,00 h 0,00 h 0 W/m 1,7 km/h (1 Bft) 96,61 %
01.07.2018 01:00 17,0 C 14,3 C 15,3 C 60 % 1013,3 hPa 0,0 l/m 0,00 h 0,00 h 0 W/m 0,0 km/h (0 Bft) 98,21 %
01.07.2018 02:00 15,7 C 14,2 C 14,6 C 64 % 1013,7 hPa 0,0 l/m 0,00 h 0,00 h 0 W/m 0,0 km/h (0 Bft) 96,44 %
01.07.2018 03:00 14,6 C 13,0 C 14,0 C 67 % 1013,8 hPa 0,0 l/m 0,00 h 0,00 h 0 W/m 0,0 km/h (0 Bft) 97,31 %
01.07.2018 04:00 13,9 C 12,5 C 13,6 C 69 % 1014,1 hPa 0,0 l/m 0,00 h 0,00 h 0 W/m 0,0 km/h (0 Bft) 98,28 %
01.07.2018 05:00 13,1 C 12,2 C 13,0 C 71 % 1014,3 hPa 0,0 l/m 0,00 h 0,00 h 9 W/m 2,3 km/h (1 Bft) 99,25 %
01.07.2018 06:00 12,9 C 12,4 C 13,0 C 73 % 1014,3 hPa 0,2 l/m 0,00 h 0,00 h 22 W/m 3,7 km/h (1 Bft) 96,46 %
01.07.2018 07:00 13,5 C 14,4 C 14,4 C 76 % 1014,5 hPa 0,0 l/m 0,00 h 0,00 h 33 W/m 4,2 km/h (1 Bft) 96,03 %
01.07.2018 08:00 16,7 C 20,2 C 16,9 C 65 % 1014,8 hPa 0,0 l/m 0,80 h 0,00 h 312 W/m 10,9 km/h (2 Bft) 99,59 %
01.07.2018 09:00 20,7 C 21,6 C 18,7 C 50 % 1015,0 hPa 0,0 l/m 1,00 h 0,00 h 522 W/m 17,7 km/h (3 Bft) 96,01 %
01.07.2018 10:00 22,4 C 24,2 C 20,1 C 46 % 1015,1 hPa 0,0 l/m 1,00 h 0,00 h 667 W/m 17,3 km/h (3 Bft) 96,95 %
01.07.2018 11:00 24,8 C 30,8 C 21,4 C 41 % 1015,1 hPa 0,0 l/m 1,00 h 0,00 h 789 W/m 16,9 km/h (3 Bft) 98,72 %
01.07.2018 12:00 26,8 C 32,6 C 23,0 C 37 % 1014,8 hPa 0,0 l/m 1,00 h 0,00 h 873 W/m 15,5 km/h (3 Bft) 97,65 %
01.07.2018 13:00 27,2 C 31,5 C 24,4 C 36 % 1014,3 hPa 0,0 l/m 1,00 h 0,00 h 928 W/m 12,7 km/h (3 Bft) 97,22 %
01.07.2018 14:00 27,1 C 26,9 C 24,8 C 35 % 1014,0 hPa 0,0 l/m 1,00 h 0,00 h 933 W/m 13,9 km/h (3 Bft) 97,01 %
01.07.2018 15:00 27,9 C 29,0 C 25,1 C 36 % 1013,4 hPa 0,0 l/m 1,00 h 0,00 h 889 W/m 10,7 km/h (2 Bft) 99,07 %
01.07.2018 16:00 28,7 C 32,6 C 25,6 C 36 % 1013,0 hPa 0,0 l/m 1,00 h 0,00 h 804 W/m 10,9 km/h (2 Bft) 97,58 %
01.07.2018 17:00 28,7 C 29,7 C 25,9 C 36 % 1012,6 hPa 0,0 l/m 1,00 h 0,00 h 683 W/m 12,3 km/h (3 Bft) 96,23 %
01.07.2018 18:00 28,1 C 27,8 C 25,9 C 36 % 1012,3 hPa 0,0 l/m 1,00 h 0,00 h 536 W/m 12,5 km/h (3 Bft) 96,43 %
01.07.2018 19:00 27,4 C 27,0 C 24,8 C 35 % 1012,3 hPa 0,0 l/m 1,00 h 0,00 h 371 W/m 8,5 km/h (2 Bft) 97,36 %
01.07.2018 20:00 25,7 C 23,4 C 19,6 C 38 % 1012,4 hPa 0,0 l/m 0,00 h 0,00 h 31 W/m 4,4 km/h (1 Bft) 97,15 %
01.07.2018 21:00 22,6 C 19,6 C 15,4 C 47 % 1012,6 hPa 0,0 l/m 0,00 h 0,00 h 13 W/m 4,9 km/h (1 Bft) 98,01 %
01.07.2018 22:00 19,9 C 15,0 C 12,6 C 55 % 1013,0 hPa 0,0 l/m 0,00 h 0,00 h 0 W/m 1,5 km/h (1 Bft) 97,01 %
01.07.2018 23:00 17,5 C 12,6 C 12,1 C 61 % 1013,4 hPa 0,0 l/m 0,00 h 0,00 h 0 W/m 3,3 km/h (1 Bft) 98,01 %
Min-Datum _ 27.06.18 26.06.18 30.06.18 01.07.18 30.06.18 - - - - 25.06.18 27.06.18
_ Min-Zeit 05:26 04:28 05:35 14:24 18:40 - - - - 01:40 16:06
Minimum _ 11,9 C 11,1 C 0,0 C 33 % 1011,1 hPa - - - - 0,0 km/h (0 Bft) 89,13 %
Max-Datum _ 29.06.18 30.06.18 29.06.18 27.06.18 26.06.18 01.07.18 25.06.18 25.06.18 26.06.18 01.07.18 25.06.18
_ Max-Zeit 17:46 12:22 17:30 08:06 11:22 06:32 18:08 00:00 14:02 12:40 00:00
Maximum _ 30,6 C 37,8 C 28,3 C 97 % 1023,9 hPa 0,2 l/m 0,07 h 0,00 h 1197 W/m 29,3 km/h
S-SO (5 Bft)
100,00 %
Durchschnitt _ 20,5 C 20,9 C 18,6 C 67 % 1018,4 hPa #0,2 l/m #71:02 h #0 min. 414 W/m 6,8 km/h (2 Bft) 97,52 %
© 2018 W. Hausmann